Canadian, TX

1:43 PM CST on December 27, 2014 (GMT -0600)
Hemphill County | Change Station
CLOSE
Current Station
Airport
Location: Canadian,
Elevation: 2395 ft
Nearby Weather Stations

Elev 2395 ft 35.89 °N, 100.40 °W | Updated 8 minutes ago

Clear
Clear
35 °F
Feels Like 28 °F
N
8
Wind Variable Wind from NNW

Today
High -- | Low -- °F
--% Chance of Precip.
Yesterday
High -- | Low -- °F
Precip. -- in
7:50 AM 5:34 PM
Waxing Crescent, 39% visible
Pressure 30.28 in
Visibility -9999.0 miles
Clouds Clear
Windchill 28 °F
Dew Point 17 °F
Humidity 48%
Rainfall 0.00 in
Snow Depth Not available.
UV 3 out of 12
Pollen 4.20 out of 12
Air Quality Not available.
Flu Activity Not available.
METAR KHHF 271935Z AUTO 33007KT CLR 02/M08 A3028 RMK AO2 T00151085 PWINO

More Conditions Fewer Conditions

Pressure 30.28 in
Visibility -9999.0 miles
Clouds Clear
Windchill 28 °F
Dew Point 17 °F
Humidity 48%
Rainfall 0.00 in
Snow Depth Not available.
UV 3 out of 12
Pollen 4.20 out of 12
Air Quality Not available.
Flu Activity Not available.
METAR KHHF 271935Z AUTO 33007KT CLR 02/M08 A3028 RMK AO2 T00151085 PWINO

More Conditions Fewer Conditions

10-Day Weather Forecast

Almanac

Astronomy

Dec. 27, 2014 Rise Set
Actual Time
Civil Twilight
Nautical Twilight
Astronomical Twilight
Moon
Length of Visible Light
Length of Day
Tomorrow will be .
, % of the Moon is Illuminated

Today's Extremes

State Highs State Lows

Community

WunderPhotos

Upload Photos

1,781,028 photos uploaded!

WunderBlogs® & News

Nearby

Air Quality

  Air Quality AQ Index Pollutant
Not available.

Snow Depth

Station Depth Elevation

Earthquake Activity

City Distance Mag. Time & Date
Minimum magnitude displayed is 2.5.

Coastal Water Temperatures

Place Temperature

Nearby Weather Stations